sensor_id;sensor_type;location;lat;lon;timestamp;pressure;altitude;pressure_sealevel;temperature;humidity
35918;BME280;22011;59.912;30.300;2022-09-04T00:02:27;102030.56;;;11.09;67.68
35918;BME280;22011;59.912;30.300;2022-09-04T00:05:04;102019.34;;;11.06;67.76
35918;BME280;22011;59.912;30.300;2022-09-04T00:07:38;102023.81;;;10.96;67.27
35918;BME280;22011;59.912;30.300;2022-09-04T00:10:15;102030.81;;;10.97;67.83
35918;BME280;22011;59.912;30.300;2022-09-04T00:12:50;102023.94;;;10.94;67.47
35918;BME280;22011;59.912;30.300;2022-09-04T00:15:25;102021.69;;;10.90;67.44
35918;BME280;22011;59.912;30.300;2022-09-04T00:17:59;102027.72;;;10.92;67.05
35918;BME280;22011;59.912;30.300;2022-09-04T00:20:34;102018.31;;;10.88;67.17
35918;BME280;22011;59.912;30.300;2022-09-04T00:23:10;102021.25;;;10.85;67.67
35918;BME280;22011;59.912;30.300;2022-09-04T00:25:48;102032.75;;;10.85;67.48
35918;BME280;22011;59.912;30.300;2022-09-04T00:28:24;102033.16;;;10.80;67.13
35918;BME280;22011;59.912;30.300;2022-09-04T00:30:57;102028.81;;;10.79;66.99
35918;BME280;22011;59.912;30.300;2022-09-04T00:33:34;102026.44;;;10.86;67.08
35918;BME280;22011;59.912;30.300;2022-09-04T00:36:06;102032.72;;;10.75;67.52
35918;BME280;22011;59.912;30.300;2022-09-04T00:38:40;102028.53;;;10.82;68.01
35918;BME280;22011;59.912;30.300;2022-09-04T00:41:20;102040.88;;;10.84;68.18
35918;BME280;22011;59.912;30.300;2022-09-04T00:44:23;102033.31;;;10.89;68.39
35918;BME280;22011;59.912;30.300;2022-09-04T00:47:04;102037.78;;;10.78;68.03
35918;BME280;22011;59.912;30.300;2022-09-04T00:49:48;102040.84;;;10.74;68.10
35918;BME280;22011;59.912;30.300;2022-09-04T00:52:32;102033.56;;;10.76;68.24
35918;BME280;22011;59.912;30.300;2022-09-04T00:55:15;102040.84;;;10.74;67.95
35918;BME280;22011;59.912;30.300;2022-09-04T00:58:05;102034.00;;;10.81;67.86
35918;BME280;22011;59.912;30.300;2022-09-04T01:00:35;102028.22;;;10.66;67.14
35918;BME280;22011;59.912;30.300;2022-09-04T01:06:17;102036.81;;;10.79;68.04
35918;BME280;22011;59.912;30.300;2022-09-04T01:09:10;102034.16;;;10.79;68.22
35918;BME280;22011;59.912;30.300;2022-09-04T01:11:55;102036.38;;;10.74;68.18
35918;BME280;22011;59.912;30.300;2022-09-04T01:14:33;102034.25;;;10.68;68.12
35918;BME280;22011;59.912;30.300;2022-09-04T01:17:13;102032.88;;;10.74;68.11
35918;BME280;22011;59.912;30.300;2022-09-04T01:19:55;102033.31;;;10.79;68.01
35918;BME280;22011;59.912;30.300;2022-09-04T01:22:51;102028.84;;;10.89;67.62
35918;BME280;22011;59.912;30.300;2022-09-04T01:25:55;102031.66;;;10.88;67.62
35918;BME280;22011;59.912;30.300;2022-09-04T01:28:28;102032.88;;;10.74;67.61
35918;BME280;22011;59.912;30.300;2022-09-04T01:31:11;102034.97;;;10.80;67.77
35918;BME280;22011;59.912;30.300;2022-09-04T01:33:48;102029.09;;;10.76;68.05
35918;BME280;22011;59.912;30.300;2022-09-04T01:36:31;102040.19;;;10.81;67.93
35918;BME280;22011;59.912;30.300;2022-09-04T01:39:02;102040.56;;;10.67;67.92
35918;BME280;22011;59.912;30.300;2022-09-04T01:41:34;102036.63;;;10.71;68.11
35918;BME280;22011;59.912;30.300;2022-09-04T01:44:06;102044.72;;;10.60;68.33
35918;BME280;22011;59.912;30.300;2022-09-04T01:46:44;102043.66;;;10.72;68.20
35918;BME280;22011;59.912;30.300;2022-09-04T01:49:27;102042.09;;;10.70;68.59
35918;BME280;22011;59.912;30.300;2022-09-04T01:52:04;102048.41;;;10.69;68.60
35918;BME280;22011;59.912;30.300;2022-09-04T01:54:51;102039.03;;;10.74;68.95
35918;BME280;22011;59.912;30.300;2022-09-04T01:57:32;102043.53;;;10.74;68.82
35918;BME280;22011;59.912;30.300;2022-09-04T02:00:07;102050.81;;;10.72;68.29
35918;BME280;22011;59.912;30.300;2022-09-04T02:03:01;102050.84;;;10.81;69.03
35918;BME280;22011;59.912;30.300;2022-09-04T02:05:41;102046.72;;;10.68;68.55
35918;BME280;22011;59.912;30.300;2022-09-04T02:08:24;102053.16;;;10.65;68.75
35918;BME280;22011;59.912;30.300;2022-09-04T02:11:03;102054.56;;;10.60;68.89
35918;BME280;22011;59.912;30.300;2022-09-04T02:13:43;102055.25;;;10.62;68.92
35918;BME280;22011;59.912;30.300;2022-09-04T02:16:14;102059.31;;;10.56;68.52
35918;BME280;22011;59.912;30.300;2022-09-04T02:18:55;102057.09;;;10.61;68.60
35918;BME280;22011;59.912;30.300;2022-09-04T02:21:30;102059.56;;;10.53;68.73
35918;BME280;22011;59.912;30.300;2022-09-04T02:24:05;102055.94;;;10.54;68.98
35918;BME280;22011;59.912;30.300;2022-09-04T02:26:40;102054.25;;;10.53;68.93
35918;BME280;22011;59.912;30.300;2022-09-04T02:29:16;102059.84;;;10.50;69.00
35918;BME280;22011;59.912;30.300;2022-09-04T02:31:53;102059.13;;;10.48;69.07
35918;BME280;22011;59.912;30.300;2022-09-04T02:34:29;102054.78;;;10.47;69.31
35918;BME280;22011;59.912;30.300;2022-09-04T02:37:02;102062.63;;;10.39;69.32
35918;BME280;22011;59.912;30.300;2022-09-04T02:39:40;102046.63;;;10.39;69.41
35918;BME280;22011;59.912;30.300;2022-09-04T02:42:18;102052.63;;;10.41;69.39
35918;BME280;22011;59.912;30.300;2022-09-04T02:44:57;102065.97;;;10.41;69.83
35918;BME280;22011;59.912;30.300;2022-09-04T02:47:35;102054.47;;;10.40;69.62
35918;BME280;22011;59.912;30.300;2022-09-04T02:50:16;102057.56;;;10.45;69.76
35918;BME280;22011;59.912;30.300;2022-09-04T02:53:03;102052.69;;;10.51;69.90
35918;BME280;22011;59.912;30.300;2022-09-04T02:55:47;102056.00;;;10.43;69.50
35918;BME280;22011;59.912;30.300;2022-09-04T02:58:25;102064.56;;;10.37;69.46
35918;BME280;22011;59.912;30.300;2022-09-04T03:01:02;102059.50;;;10.34;69.67
35918;BME280;22011;59.912;30.300;2022-09-04T03:03:38;102062.97;;;10.25;69.83
35918;BME280;22011;59.912;30.300;2022-09-04T03:06:09;102054.63;;;10.18;69.52
35918;BME280;22011;59.912;30.300;2022-09-04T03:08:44;102058.47;;;10.25;70.06
35918;BME280;22011;59.912;30.300;2022-09-04T03:11:15;102062.50;;;10.20;69.51
35918;BME280;22011;59.912;30.300;2022-09-04T03:13:49;102062.97;;;10.25;69.79
35918;BME280;22011;59.912;30.300;2022-09-04T03:16:26;102069.38;;;10.22;70.24
35918;BME280;22011;59.912;30.300;2022-09-04T03:19:06;102061.41;;;10.22;70.12
35918;BME280;22011;59.912;30.300;2022-09-04T03:21:40;102065.88;;;10.22;69.94
35918;BME280;22011;59.912;30.300;2022-09-04T03:24:14;102075.69;;;10.21;69.50
35918;BME280;22011;59.912;30.300;2022-09-04T03:26:45;102068.91;;;10.17;69.76
35918;BME280;22011;59.912;30.300;2022-09-04T03:29:21;102079.44;;;10.19;69.76
35918;BME280;22011;59.912;30.300;2022-09-04T03:32:03;102082.44;;;10.25;70.09
35918;BME280;22011;59.912;30.300;2022-09-04T03:34:37;102072.25;;;10.30;69.34
35918;BME280;22011;59.912;30.300;2022-09-04T03:40:05;102083.09;;;10.48;69.24
35918;BME280;22011;59.912;30.300;2022-09-04T03:42:47;102084.78;;;10.49;69.27
35918;BME280;22011;59.912;30.300;2022-09-04T03:45:27;102081.94;;;10.41;69.29
35918;BME280;22011;59.912;30.300;2022-09-04T03:48:09;102083.94;;;10.39;69.77
35918;BME280;22011;59.912;30.300;2022-09-04T03:50:44;102086.41;;;10.31;69.51
35918;BME280;22011;59.912;30.300;2022-09-04T03:53:20;102085.81;;;10.27;69.65
35918;BME280;22011;59.912;30.300;2022-09-04T03:56:11;102084.91;;;10.38;69.79
35918;BME280;22011;59.912;30.300;2022-09-04T03:58:49;102085.16;;;10.35;69.55
35918;BME280;22011;59.912;30.300;2022-09-04T04:01:29;102089.53;;;10.36;69.64
35918;BME280;22011;59.912;30.300;2022-09-04T04:07:03;102085.88;;;10.37;69.56
35918;BME280;22011;59.912;30.300;2022-09-04T04:10:03;102082.84;;;10.51;70.08
35918;BME280;22011;59.912;30.300;2022-09-04T04:12:52;102093.88;;;10.37;70.34
35918;BME280;22011;59.912;30.300;2022-09-04T04:15:31;102096.81;;;10.43;69.90
35918;BME280;22011;59.912;30.300;2022-09-04T04:18:29;102100.00;;;10.58;69.72
35918;BME280;22011;59.912;30.300;2022-09-04T04:21:07;102092.97;;;10.57;69.30
35918;BME280;22011;59.912;30.300;2022-09-04T04:24:11;102094.31;;;10.72;69.94
35918;BME280;22011;59.912;30.300;2022-09-04T04:26:52;102091.16;;;10.58;70.05
35918;BME280;22011;59.912;30.300;2022-09-04T04:29:39;102104.34;;;10.59;70.15
35918;BME280;22011;59.912;30.300;2022-09-04T04:32:24;102107.00;;;10.59;70.44
35918;BME280;22011;59.912;30.300;2022-09-04T04:35:04;102100.00;;;10.58;70.96
35918;BME280;22011;59.912;30.300;2022-09-04T04:37:44;102107.00;;;10.59;70.58
35918;BME280;22011;59.912;30.300;2022-09-04T04:40:19;102107.41;;;10.85;69.77
35918;BME280;22011;59.912;30.300;2022-09-04T04:42:54;102114.28;;;10.57;70.41
35918;BME280;22011;59.912;30.300;2022-09-04T04:45:31;102114.16;;;10.59;70.29
35918;BME280;22011;59.912;30.300;2022-09-04T04:48:34;102102.69;;;10.68;70.87
35918;BME280;22011;59.912;30.300;2022-09-04T04:51:15;102101.16;;;10.65;70.49
35918;BME280;22011;59.912;30.300;2022-09-04T04:53:55;102101.41;;;10.62;70.66
35918;BME280;22011;59.912;30.300;2022-09-04T04:56:28;102106.03;;;10.60;70.63
35918;BME280;22011;59.912;30.300;2022-09-04T04:59:05;102113.22;;;10.69;71.28
35918;BME280;22011;59.912;30.300;2022-09-04T05:01:41;102110.75;;;10.77;70.50
35918;BME280;22011;59.912;30.300;2022-09-04T05:04:16;102103.72;;;10.76;71.29
35918;BME280;22011;59.912;30.300;2022-09-04T05:06:51;102112.84;;;10.74;70.77
35918;BME280;22011;59.912;30.300;2022-09-04T05:09:30;102120.84;;;10.74;71.23
35918;BME280;22011;59.912;30.300;2022-09-04T05:12:07;102123.31;;;10.66;71.61
35918;BME280;22011;59.912;30.300;2022-09-04T05:14:47;102126.69;;;10.68;71.79
35918;BME280;22011;59.912;30.300;2022-09-04T05:17:19;102119.50;;;10.89;70.93
35918;BME280;22011;59.912;30.300;2022-09-04T05:19:52;102110.78;;;10.57;71.38
35918;BME280;22011;59.912;30.300;2022-09-04T05:22:27;102116.25;;;10.55;71.30
35918;BME280;22011;59.912;30.300;2022-09-04T05:25:08;102112.53;;;10.67;71.43
35918;BME280;22011;59.912;30.300;2022-09-04T05:27:49;102116.28;;;10.65;71.73
35918;BME280;22011;59.912;30.300;2022-09-04T05:30:21;102115.00;;;10.59;71.29
35918;BME280;22011;59.912;30.300;2022-09-04T05:32:55;102113.75;;;10.63;71.35
35918;BME280;22011;59.912;30.300;2022-09-04T05:35:34;102103.69;;;10.67;71.99
35918;BME280;22011;59.912;30.300;2022-09-04T05:38:10;102108.09;;;10.77;71.80
35918;BME280;22011;59.912;30.300;2022-09-04T05:41:01;102105.50;;;10.97;71.55
35918;BME280;22011;59.912;30.300;2022-09-04T05:43:41;102102.13;;;10.95;71.32
35918;BME280;22011;59.912;30.300;2022-09-04T05:46:16;102108.28;;;10.95;69.96
35918;BME280;22011;59.912;30.300;2022-09-04T05:48:58;102106.91;;;11.01;69.39
35918;BME280;22011;59.912;30.300;2022-09-04T05:51:42;102111.44;;;11.10;69.21
35918;BME280;22011;59.912;30.300;2022-09-04T05:54:29;102097.47;;;11.37;69.05
35918;BME280;22011;59.912;30.300;2022-09-04T05:57:17;102110.34;;;11.22;68.48
35918;BME280;22011;59.912;30.300;2022-09-04T06:00:05;102113.59;;;11.26;69.02
35918;BME280;22011;59.912;30.300;2022-09-04T06:05:42;102126.41;;;11.41;68.40
35918;BME280;22011;59.912;30.300;2022-09-04T06:08:25;102119.63;;;11.47;67.84
35918;BME280;22011;59.912;30.300;2022-09-04T06:11:05;102128.22;;;11.41;68.40
35918;BME280;22011;59.912;30.300;2022-09-04T06:14:10;102126.13;;;11.54;68.51
35918;BME280;22011;59.912;30.300;2022-09-04T06:16:52;102132.28;;;11.55;67.85
35918;BME280;22011;59.912;30.300;2022-09-04T06:19:50;102135.41;;;11.60;67.00
35918;BME280;22011;59.912;30.300;2022-09-04T06:26:01;102136.53;;;11.76;66.39
35918;BME280;22011;59.912;30.300;2022-09-04T06:29:05;102139.41;;;11.94;66.33
35918;BME280;22011;59.912;30.300;2022-09-04T06:31:59;102139.66;;;12.10;66.12
35918;BME280;22011;59.912;30.300;2022-09-04T06:34:53;102147.13;;;12.26;65.32
35918;BME280;22011;59.912;30.300;2022-09-04T06:37:34;102147.81;;;12.19;64.82
35918;BME280;22011;59.912;30.300;2022-09-04T06:40:13;102145.56;;;12.24;64.83
35918;BME280;22011;59.912;30.300;2022-09-04T06:42:54;102147.25;;;12.25;64.58
35918;BME280;22011;59.912;30.300;2022-09-04T06:45:38;102151.03;;;12.32;64.39
35918;BME280;22011;59.912;30.300;2022-09-04T06:48:20;102156.25;;;12.33;64.49
35918;BME280;22011;59.912;30.300;2022-09-04T06:50:52;102161.81;;;12.59;64.13
35918;BME280;22011;59.912;30.300;2022-09-04T06:53:35;102166.38;;;12.39;64.39
35918;BME280;22011;59.912;30.300;2022-09-04T06:56:18;102161.97;;;12.48;63.98
35918;BME280;22011;59.912;30.300;2022-09-04T06:59:11;102165.34;;;12.50;63.71
35918;BME280;22011;59.912;30.300;2022-09-04T07:01:49;102166.22;;;12.41;64.31
35918;BME280;22011;59.912;30.300;2022-09-04T07:04:30;102170.31;;;12.45;63.72
35918;BME280;22011;59.912;30.300;2022-09-04T07:07:09;102172.00;;;12.46;63.07
35918;BME280;22011;59.912;30.300;2022-09-04T07:09:43;102171.28;;;12.44;62.89
35918;BME280;22011;59.912;30.300;2022-09-04T07:12:35;102183.28;;;12.77;63.20
35918;BME280;22011;59.912;30.300;2022-09-04T07:15:26;102176.50;;;12.92;62.22
35918;BME280;22011;59.912;30.300;2022-09-04T07:18:01;102182.41;;;12.96;62.27
35918;BME280;22011;59.912;30.300;2022-09-04T07:20:38;102184.19;;;13.05;61.40
35918;BME280;22011;59.912;30.300;2022-09-04T07:23:26;102178.50;;;13.27;60.82
35918;BME280;22011;59.912;30.300;2022-09-04T07:26:05;102184.16;;;13.24;60.74
35918;BME280;22011;59.912;30.300;2022-09-04T07:31:39;102187.22;;;13.29;59.03
35918;BME280;22011;59.912;30.300;2022-09-04T07:34:15;102180.78;;;13.50;58.46
35918;BME280;22011;59.912;30.300;2022-09-04T07:36:50;102188.03;;;13.57;58.42
35918;BME280;22011;59.912;30.300;2022-09-04T07:39:27;102187.03;;;13.58;58.03
35918;BME280;22011;59.912;30.300;2022-09-04T07:42:00;102183.13;;;13.53;58.12
35918;BME280;22011;59.912;30.300;2022-09-04T07:44:38;102194.91;;;13.60;58.56
35918;BME280;22011;59.912;30.300;2022-09-04T07:47:13;102184.09;;;13.79;57.90
35918;BME280;22011;59.912;30.300;2022-09-04T07:49:54;102187.00;;;14.03;56.33
35918;BME280;22011;59.912;30.300;2022-09-04T07:52:40;102182.03;;;14.08;56.58
35918;BME280;22011;59.912;30.300;2022-09-04T07:55:17;102183.19;;;14.06;56.40
35918;BME280;22011;59.912;30.300;2022-09-04T07:57:59;102181.72;;;14.12;55.90
35918;BME280;22011;59.912;30.300;2022-09-04T08:00:36;102184.25;;;13.95;55.57
35918;BME280;22011;59.912;30.300;2022-09-04T08:03:36;102185.09;;;14.31;56.17
35918;BME280;22011;59.912;30.300;2022-09-04T08:06:09;102195.50;;;14.52;56.07
35918;BME280;22011;59.912;30.300;2022-09-04T08:09:21;102193.28;;;14.48;55.83
35918;BME280;22011;59.912;30.300;2022-09-04T08:12:15;102187.25;;;14.46;55.09
35918;BME280;22011;59.912;30.300;2022-09-04T08:14:52;102198.56;;;14.39;55.13
35918;BME280;22011;59.912;30.300;2022-09-04T08:17:53;102199.38;;;14.58;55.31
35918;BME280;22011;59.912;30.300;2022-09-04T08:20:42;102196.19;;;14.54;55.22
35918;BME280;22011;59.912;30.300;2022-09-04T08:23:38;102205.47;;;14.68;54.57
35918;BME280;22011;59.912;30.300;2022-09-04T08:26:13;102213.00;;;14.64;53.92
35918;BME280;22011;59.912;30.300;2022-09-04T08:29:06;102203.84;;;15.01;52.87
35918;BME280;22011;59.912;30.300;2022-09-04T08:31:41;102200.06;;;14.86;51.72
35918;BME280;22011;59.912;30.300;2022-09-04T08:34:32;102199.22;;;15.11;52.29
35918;BME280;22011;59.912;30.300;2022-09-04T08:37:15;102205.66;;;14.92;52.13
35918;BME280;22011;59.912;30.300;2022-09-04T08:39:57;102208.16;;;14.68;53.07
35918;BME280;22011;59.912;30.300;2022-09-04T08:43:12;102213.31;;;14.61;53.55
35918;BME280;22011;59.912;30.300;2022-09-04T08:52:19;102206.91;;;14.54;53.64
35918;BME280;22011;59.912;30.300;2022-09-04T08:58:32;102207.63;;;14.64;53.22
35918;BME280;22011;59.912;30.300;2022-09-04T09:01:14;102209.75;;;14.79;53.29
35918;BME280;22011;59.912;30.300;2022-09-04T09:04:08;102201.66;;;14.45;56.44
35918;BME280;22011;59.912;30.300;2022-09-04T09:07:04;102206.91;;;14.36;57.12
35918;BME280;22011;59.912;30.300;2022-09-04T09:15:59;102196.81;;;14.48;55.26
35918;BME280;22011;59.912;30.300;2022-09-04T09:18:34;102196.34;;;14.35;54.93
35918;BME280;22011;59.912;30.300;2022-09-04T09:21:08;102204.91;;;14.38;54.93
35918;BME280;22011;59.912;30.300;2022-09-04T09:23:59;102207.22;;;14.51;54.97
35918;BME280;22011;59.912;30.300;2022-09-04T09:26:35;102209.84;;;14.43;53.45
35918;BME280;22011;59.912;30.300;2022-09-04T09:35:53;102202.13;;;14.92;52.66
35918;BME280;22011;59.912;30.300;2022-09-04T09:48:11;102213.44;;;14.52;57.02
35918;BME280;22011;59.912;30.300;2022-09-04T09:57:59;102215.66;;;14.21;57.24
35918;BME280;22011;59.912;30.300;2022-09-04T10:00:38;102213.66;;;14.05;55.85
35918;BME280;22011;59.912;30.300;2022-09-04T10:06:27;102222.31;;;14.17;55.01
35918;BME280;22011;59.912;30.300;2022-09-04T10:15:58;102222.28;;;15.30;50.45
35918;BME280;22011;59.912;30.300;2022-09-04T10:19:11;102216.75;;;15.31;50.05
35918;BME280;22011;59.912;30.300;2022-09-04T10:22:00;102216.38;;;15.18;49.81
35918;BME280;22011;59.912;30.300;2022-09-04T10:25:12;102220.91;;;15.18;49.87
35918;BME280;22011;59.912;30.300;2022-09-04T10:34:00;102233.44;;;14.83;51.86
35918;BME280;22011;59.912;30.300;2022-09-04T10:36:40;102232.78;;;14.63;52.15
35918;BME280;22011;59.912;30.300;2022-09-04T10:39:21;102234.63;;;14.63;51.75
35918;BME280;22011;59.912;30.300;2022-09-04T10:42:21;102232.91;;;14.80;51.74
35918;BME280;22011;59.912;30.300;2022-09-04T10:45:14;102232.91;;;15.05;50.96
35918;BME280;22011;59.912;30.300;2022-09-04T10:51:27;102236.75;;;15.37;49.68
35918;BME280;22011;59.912;30.300;2022-09-04T10:57:19;102250.22;;;14.85;52.64
35918;BME280;22011;59.912;30.300;2022-09-04T11:00:02;102256.50;;;14.50;55.97
35918;BME280;22011;59.912;30.300;2022-09-04T11:06:17;102262.81;;;14.14;60.48
35918;BME280;22011;59.912;30.300;2022-09-04T11:09:11;102257.59;;;13.94;62.74
35918;BME280;22011;59.912;30.300;2022-09-04T11:11:56;102275.38;;;13.68;63.21
35918;BME280;22011;59.912;30.300;2022-09-04T11:14:41;102288.50;;;13.61;61.74
35918;BME280;22011;59.912;30.300;2022-09-04T11:21:07;102288.91;;;13.39;64.34
35918;BME280;22011;59.912;30.300;2022-09-04T11:24:01;102284.88;;;13.25;67.01
35918;BME280;22011;59.912;30.300;2022-09-04T11:29:50;102278.66;;;13.15;67.03
35918;BME280;22011;59.912;30.300;2022-09-04T11:38:58;102284.81;;;13.45;63.71
35918;BME280;22011;59.912;30.300;2022-09-04T11:44:57;102294.44;;;13.55;62.38
35918;BME280;22011;59.912;30.300;2022-09-04T11:47:58;102298.25;;;13.53;62.47
35918;BME280;22011;59.912;30.300;2022-09-04T11:50:44;102301.44;;;13.38;61.97
35918;BME280;22011;59.912;30.300;2022-09-04T11:56:42;102302.03;;;13.32;62.42
35918;BME280;22011;59.912;30.300;2022-09-04T11:59:42;102301.28;;;13.50;63.01
35918;BME280;22011;59.912;30.300;2022-09-04T12:02:34;102298.97;;;13.55;63.38
35918;BME280;22011;59.912;30.300;2022-09-04T12:05:21;102297.69;;;13.59;61.83
35918;BME280;22011;59.912;30.300;2022-09-04T12:08:22;102298.38;;;13.61;61.65
35918;BME280;22011;59.912;30.300;2022-09-04T12:11:11;102296.09;;;13.66;62.98
35918;BME280;22011;59.912;30.300;2022-09-04T12:13:59;102299.38;;;13.60;63.93
35918;BME280;22011;59.912;30.300;2022-09-04T12:19:55;102306.63;;;13.77;61.27
35918;BME280;22011;59.912;30.300;2022-09-04T12:22:41;102307.75;;;13.74;61.54
35918;BME280;22011;59.912;30.300;2022-09-04T12:25:45;102295.91;;;13.77;60.99
35918;BME280;22011;59.912;30.300;2022-09-04T12:28:50;102302.69;;;13.71;60.51
35918;BME280;22011;59.912;30.300;2022-09-04T12:31:51;102301.16;;;13.69;60.64
35918;BME280;22011;59.912;30.300;2022-09-04T12:40:32;102306.69;;;13.58;62.38
35918;BME280;22011;59.912;30.300;2022-09-04T12:43:23;102309.63;;;13.64;61.92
35918;BME280;22011;59.912;30.300;2022-09-04T12:46:05;102308.84;;;13.54;62.50
35918;BME280;22011;59.912;30.300;2022-09-04T12:48:51;102304.09;;;13.48;62.58
35918;BME280;22011;59.912;30.300;2022-09-04T12:51:22;102302.16;;;13.40;63.47
35918;BME280;22011;59.912;30.300;2022-09-04T12:54:01;102307.31;;;13.52;64.30
35918;BME280;22011;59.912;30.300;2022-09-04T12:56:44;102302.03;;;13.60;64.72
35918;BME280;22011;59.912;30.300;2022-09-04T13:02:14;102294.53;;;13.46;64.84
35918;BME280;22011;59.912;30.300;2022-09-04T13:04:52;102303.25;;;13.48;66.12
35918;BME280;22011;59.912;30.300;2022-09-04T13:07:30;102304.66;;;13.52;65.38
35918;BME280;22011;59.912;30.300;2022-09-04T13:10:11;102296.13;;;13.56;64.92
35918;BME280;22011;59.912;30.300;2022-09-04T13:12:48;102301.19;;;13.59;63.77
35918;BME280;22011;59.912;30.300;2022-09-04T13:15:28;102304.81;;;13.68;64.23
35918;BME280;22011;59.912;30.300;2022-09-04T13:18:12;102302.28;;;13.66;64.40
35918;BME280;22011;59.912;30.300;2022-09-04T13:20:45;102310.22;;;13.58;64.23
35918;BME280;22011;59.912;30.300;2022-09-04T13:23:32;102300.06;;;13.62;65.90
35918;BME280;22011;59.912;30.300;2022-09-04T13:26:28;102310.03;;;13.42;68.14
35918;BME280;22011;59.912;30.300;2022-09-04T13:29:11;102316.13;;;13.25;67.63
35918;BME280;22011;59.912;30.300;2022-09-04T13:31:54;102321.34;;;13.26;69.59
35918;BME280;22011;59.912;30.300;2022-09-04T13:34:31;102331.78;;;13.10;69.03
35918;BME280;22011;59.912;30.300;2022-09-04T13:37:09;102322.50;;;13.04;68.39
35918;BME280;22011;59.912;30.300;2022-09-04T13:39:54;102324.03;;;13.07;65.04
35918;BME280;22011;59.912;30.300;2022-09-04T13:45:22;102325.59;;;12.81;64.54
35918;BME280;22011;59.912;30.300;2022-09-04T13:47:54;102323.22;;;12.87;65.23
35918;BME280;22011;59.912;30.300;2022-09-04T13:50:26;102322.78;;;12.82;66.46
35918;BME280;22011;59.912;30.300;2022-09-04T13:53:00;102326.16;;;12.84;65.49
35918;BME280;22011;59.912;30.300;2022-09-04T13:55:34;102326.16;;;12.84;66.07
35918;BME280;22011;59.912;30.300;2022-09-04T13:58:08;102318.44;;;12.81;66.68
35918;BME280;22011;59.912;30.300;2022-09-04T14:00:44;102321.94;;;12.91;64.78
35918;BME280;22011;59.912;30.300;2022-09-04T14:03:22;102323.19;;;12.97;65.95
35918;BME280;22011;59.912;30.300;2022-09-04T14:05:52;102320.78;;;13.03;65.74
35918;BME280;22011;59.912;30.300;2022-09-04T14:08:20;102322.06;;;13.19;62.62
35918;BME280;22011;59.912;30.300;2022-09-04T14:11:22;102323.53;;;13.50;64.82
35918;BME280;22011;59.912;30.300;2022-09-04T14:16:48;102324.59;;;13.20;63.64
35918;BME280;22011;59.912;30.300;2022-09-04T14:19:31;102327.81;;;13.33;63.58
35918;BME280;22011;59.912;30.300;2022-09-04T14:22:18;102331.63;;;13.31;63.90
35918;BME280;22011;59.912;30.300;2022-09-04T14:24:55;102329.53;;;13.25;63.93
35918;BME280;22011;59.912;30.300;2022-09-04T14:27:38;102330.63;;;13.32;64.51
35918;BME280;22011;59.912;30.300;2022-09-04T14:30:12;102330.78;;;13.30;63.10
35918;BME280;22011;59.912;30.300;2022-09-04T14:32:49;102330.34;;;13.35;63.79
35918;BME280;22011;59.912;30.300;2022-09-04T14:35:32;102333.16;;;13.33;61.21
35918;BME280;22011;59.912;30.300;2022-09-04T14:38:28;102325.25;;;13.41;60.80
35918;BME280;22011;59.912;30.300;2022-09-04T14:41:07;102331.22;;;13.26;60.48
35918;BME280;22011;59.912;30.300;2022-09-04T14:43:46;102332.34;;;13.23;61.56
35918;BME280;22011;59.912;30.300;2022-09-04T14:46:32;102331.22;;;13.26;62.41
35918;BME280;22011;59.912;30.300;2022-09-04T14:49:07;102330.25;;;13.17;61.96
35918;BME280;22011;59.912;30.300;2022-09-04T14:51:39;102332.34;;;13.14;63.44
35918;BME280;22011;59.912;30.300;2022-09-04T14:54:17;102327.41;;;13.19;62.57
35918;BME280;22011;59.912;30.300;2022-09-04T14:56:51;102334.59;;;13.18;62.23
35918;BME280;22011;59.912;30.300;2022-09-04T14:59:26;102333.19;;;13.24;62.16
35918;BME280;22011;59.912;30.300;2022-09-04T15:02:11;102330.34;;;13.35;64.10
35918;BME280;22011;59.912;30.300;2022-09-04T15:04:46;102329.78;;;13.31;64.48
35918;BME280;22011;59.912;30.300;2022-09-04T15:07:23;102344.03;;;13.32;63.38
35918;BME280;22011;59.912;30.300;2022-09-04T15:10:05;102348.13;;;13.26;62.12
35918;BME280;22011;59.912;30.300;2022-09-04T15:12:36;102346.13;;;13.09;62.24
35918;BME280;22011;59.912;30.300;2022-09-04T15:15:09;102359.81;;;13.06;63.42
35918;BME280;22011;59.912;30.300;2022-09-04T15:17:45;102357.00;;;12.88;63.03
35918;BME280;22011;59.912;30.300;2022-09-04T15:20:20;102365.88;;;12.69;65.31
35918;BME280;22011;59.912;30.300;2022-09-04T15:22:52;102361.34;;;12.60;66.08
35918;BME280;22011;59.912;30.300;2022-09-04T15:25:38;102357.69;;;12.61;65.77
35918;BME280;22011;59.912;30.300;2022-09-04T15:28:15;102358.81;;;12.39;65.70
35918;BME280;22011;59.912;30.300;2022-09-04T15:31:01;102358.81;;;12.49;65.46
35918;BME280;22011;59.912;30.300;2022-09-04T15:33:30;102348.28;;;12.38;65.06
35918;BME280;22011;59.912;30.300;2022-09-04T15:36:07;102353.47;;;12.49;65.86
35918;BME280;22011;59.912;30.300;2022-09-04T15:38:36;102356.56;;;12.35;65.29
35918;BME280;22011;59.912;30.300;2022-09-04T15:41:14;102363.75;;;12.44;64.69
35918;BME280;22011;59.912;30.300;2022-09-04T15:43:46;102360.22;;;12.34;65.26
35918;BME280;22011;59.912;30.300;2022-09-04T15:46:23;102353.34;;;12.41;65.39
35918;BME280;22011;59.912;30.300;2022-09-04T15:48:58;102357.28;;;12.47;65.05
35918;BME280;22011;59.912;30.300;2022-09-04T15:51:39;102364.44;;;12.56;65.96
35918;BME280;22011;59.912;30.300;2022-09-04T15:54:20;102366.56;;;12.52;65.75
35918;BME280;22011;59.912;30.300;2022-09-04T15:57:04;102363.75;;;12.54;65.14